Time;durP1;ratioP1;P1;durP2;ratioP2;P2;SDS_P1;SDS_P2;PMS_P1;PMS_P2;Temp;Humidity;BMP_temperature;BMP_pressure;BME280_temperature;BME280_humidity;BME280_pressure;Samples;Min_cycle;Max_cycle;Signal;HPM_P1;HPM_P2
2023/03/27 00:01:10;;;;;;;0.60;0.40;;;;;;;;;;4992928;28;20453;-73
2023/03/27 00:03:39;;;;;;;0.60;0.40;;;;;;;;;;4992477;28;20452;-73
2023/03/27 00:06:07;;;;;;;0.60;0.40;;;;;;;;;;4993020;28;20912;-73
2023/03/27 00:08:35;;;;;;;0.60;0.40;;;;;;;;;;4991642;28;20516;-73
2023/03/27 00:11:03;;;;;;;0.60;0.40;;;;;;;;;;4993238;28;20550;-74
2023/03/27 00:13:30;;;;;;;0.60;0.40;;;;;;;;;;4991767;28;20453;-73
2023/03/27 00:15:58;;;;;;;0.60;0.40;;;;;;;;;;4993035;28;20457;-74
2023/03/27 00:18:26;;;;;;;0.60;0.40;;;;;;;;;;4992091;28;20567;-74
2023/03/27 00:20:57;;;;;;;0.60;0.40;;;;;;;;;;4993234;28;20548;-73
2023/03/27 00:23:24;;;;;;;0.60;0.40;;;;;;;;;;4992421;28;20445;-73
2023/03/27 00:25:52;;;;;;;5.30;1.47;;;;;;;;;;4992793;28;20485;-73
2023/03/27 00:28:20;;;;;;;0.60;0.30;;;;;;;;;;4992164;28;20452;-72
2023/03/27 00:30:48;;;;;;;0.60;0.40;;;;;;;;;;4992669;28;20956;-73
2023/03/27 00:33:15;;;;;;;0.60;0.40;;;;;;;;;;4992559;28;20480;-73
2023/03/27 00:35:45;;;;;;;0.60;0.40;;;;;;;;;;4992972;28;20461;-73
2023/03/27 00:38:15;;;;;;;0.60;0.40;;;;;;;;;;4992750;28;20568;-73
2023/03/27 00:40:42;;;;;;;0.60;0.40;;;;;;;;;;4992785;28;20820;-73
2023/03/27 00:43:20;;;;;;;0.60;0.40;;;;;;;;;;4992336;28;20441;-74
2023/03/27 00:45:47;;;;;;;0.60;0.40;;;;;;;;;;4992311;28;21014;-74
2023/03/27 00:48:15;;;;;;;0.60;0.40;;;;;;;;;;4991701;28;20815;-73
2023/03/27 00:50:43;;;;;;;0.60;0.40;;;;;;;;;;4991500;28;20453;-73
2023/03/27 00:53:13;;;;;;;0.60;0.40;;;;;;;;;;4992418;28;20460;-73
2023/03/27 00:55:42;;;;;;;0.60;0.40;;;;;;;;;;4991841;28;20453;-73
2023/03/27 00:58:11;;;;;;;0.83;0.53;;;;;;;;;;4991805;28;20499;-73
2023/03/27 01:00:38;;;;;;;0.60;0.40;;;;;;;;;;4991259;28;20548;-73
2023/03/27 01:03:08;;;;;;;0.70;0.70;;;;;;;;;;4991811;28;20457;-73
2023/03/27 01:05:36;;;;;;;0.60;0.40;;;;;;;;;;4991464;28;20564;-73
2023/03/27 01:08:04;;;;;;;0.60;0.40;;;;;;;;;;4991779;28;20464;-73
2023/03/27 01:10:36;;;;;;;0.67;0.43;;;;;;;;;;4990890;28;20496;-73
2023/03/27 01:13:13;;;;;;;0.83;0.57;;;;;;;;;;4991781;28;20925;-73
2023/03/27 01:15:42;;;;;;;0.60;0.40;;;;;;;;;;4992442;28;20826;-73
2023/03/27 01:18:24;;;;;;;0.70;0.50;;;;;;;;;;4991575;28;20495;-73
2023/03/27 01:21:13;;;;;;;0.60;0.40;;;;;;;;;;4991951;28;20460;-73
2023/03/27 01:24:10;;;;;;;0.60;0.40;;;;;;;;;;4991739;28;20567;-73
2023/03/27 01:26:56;;;;;;;0.60;0.40;;;;;;;;;;4979125;28;20462;-73
2023/03/27 01:29:28;;;;;;;0.60;0.40;;;;;;;;;;4990774;28;20453;-74
2023/03/27 01:32:08;;;;;;;0.60;0.40;;;;;;;;;;4991454;28;20445;-73
2023/03/27 01:34:44;;;;;;;0.70;0.50;;;;;;;;;;4991408;28;20881;-73
2023/03/27 01:37:24;;;;;;;0.70;0.50;;;;;;;;;;4991799;28;20480;-73
2023/03/27 01:39:57;;;;;;;0.70;0.40;;;;;;;;;;4991142;28;20464;-73
2023/03/27 01:42:27;;;;;;;0.70;0.70;;;;;;;;;;4990421;28;20964;-74
2023/03/27 01:44:58;;;;;;;0.60;0.40;;;;;;;;;;4991489;28;20453;-73
2023/03/27 01:47:41;;;;;;;0.60;0.40;;;;;;;;;;5086411;27;20569;-74
2023/03/27 01:50:12;;;;;;;0.60;0.40;;;;;;;;;;5086630;28;20445;-74
2023/03/27 01:52:41;;;;;;;0.60;0.40;;;;;;;;;;5086266;28;20547;-74
2023/03/27 01:55:11;;;;;;;0.70;0.50;;;;;;;;;;5087123;28;20449;-73
2023/03/27 01:57:40;;;;;;;0.70;0.50;;;;;;;;;;5086390;28;20464;-73
2023/03/27 02:00:13;;;;;;;0.60;0.40;;;;;;;;;;5086653;28;20787;-72
2023/03/27 02:02:46;;;;;;;0.80;0.60;;;;;;;;;;5086329;28;20448;-72
2023/03/27 02:05:14;;;;;;;0.60;0.50;;;;;;;;;;5086712;28;20480;-73
2023/03/27 02:07:44;;;;;;;0.70;0.40;;;;;;;;;;5086263;28;20449;-75
2023/03/27 02:10:14;;;;;;;0.93;0.83;;;;;;;;;;5086219;28;20455;-72
2023/03/27 02:12:44;;;;;;;1.40;1.17;;;;;;;;;;5087287;28;20460;-73
2023/03/27 02:15:13;;;;;;;0.70;0.43;;;;;;;;;;5087244;28;20459;-73
2023/03/27 02:17:44;;;;;;;0.60;0.40;;;;;;;;;;5086816;28;20471;-73
2023/03/27 02:20:15;;;;;;;0.80;0.80;;;;;;;;;;5086585;28;20443;-73
2023/03/27 02:22:42;;;;;;;0.70;0.43;;;;;;;;;;5086748;28;20497;-74
2023/03/27 02:25:23;;;;;;;0.60;0.40;;;;;;;;;;5086551;28;20440;-73
2023/03/27 02:27:52;;;;;;;0.80;0.77;;;;;;;;;;5086796;28;20448;-73
2023/03/27 02:30:22;;;;;;;0.63;0.43;;;;;;;;;;5085544;28;20443;-72
2023/03/27 02:32:55;;;;;;;0.60;0.40;;;;;;;;;;5086634;28;20444;-72
2023/03/27 02:35:26;;;;;;;1.10;1.00;;;;;;;;;;5085834;28;20448;-72
2023/03/27 02:37:57;;;;;;;0.70;0.50;;;;;;;;;;5086827;28;20443;-72
2023/03/27 02:40:33;;;;;;;0.90;0.70;;;;;;;;;;5085438;28;20946;-72
2023/03/27 02:43:05;;;;;;;0.70;0.50;;;;;;;;;;5086020;28;20447;-72
2023/03/27 02:45:37;;;;;;;1.20;0.83;;;;;;;;;;5085157;28;20475;-72
2023/03/27 02:48:09;;;;;;;0.60;0.40;;;;;;;;;;5085797;28;20459;-72
2023/03/27 02:50:39;;;;;;;0.70;0.50;;;;;;;;;;5085007;28;20458;-75
2023/03/27 02:53:07;;;;;;;1.23;0.80;;;;;;;;;;5085910;28;20717;-73
2023/03/27 02:55:36;;;;;;;1.13;1.00;;;;;;;;;;5085351;28;20506;-73
2023/03/27 02:58:06;;;;;;;0.70;0.60;;;;;;;;;;5076605;28;20460;-73
2023/03/27 03:00:38;;;;;;;0.60;0.40;;;;;;;;;;5071603;28;20499;-73
2023/03/27 03:03:09;;;;;;;0.60;0.40;;;;;;;;;;5072122;28;20514;-72
2023/03/27 03:05:36;;;;;;;0.60;0.40;;;;;;;;;;5071592;28;20439;-73
2023/03/27 03:08:04;;;;;;;0.80;0.80;;;;;;;;;;5071685;28;20542;-73
2023/03/27 03:10:32;;;;;;;0.67;0.47;;;;;;;;;;5071685;28;20506;-72
2023/03/27 03:12:59;;;;;;;0.60;0.40;;;;;;;;;;5072314;28;20515;-73
2023/03/27 03:15:26;;;;;;;0.60;0.40;;;;;;;;;;5071945;28;20463;-72
2023/03/27 03:17:53;;;;;;;2.07;0.93;;;;;;;;;;5071929;28;20454;-72
2023/03/27 03:20:22;;;;;;;0.70;0.50;;;;;;;;;;5071546;28;20953;-72
2023/03/27 03:22:49;;;;;;;0.70;0.40;;;;;;;;;;5072174;28;20519;-72
2023/03/27 03:25:18;;;;;;;0.70;0.40;;;;;;;;;;5071868;28;20457;-73
2023/03/27 03:27:45;;;;;;;0.70;0.40;;;;;;;;;;5072046;28;20549;-72
2023/03/27 03:30:13;;;;;;;0.60;0.40;;;;;;;;;;5071898;28;20445;-72
2023/03/27 03:32:40;;;;;;;0.73;0.50;;;;;;;;;;5072037;28;20522;-72
2023/03/27 03:35:08;;;;;;;0.70;0.40;;;;;;;;;;5072292;28;20461;-72
2023/03/27 03:37:38;;;;;;;0.60;0.40;;;;;;;;;;5071571;28;20467;-71
2023/03/27 03:40:10;;;;;;;1.53;0.87;;;;;;;;;;5071348;28;20991;-71
2023/03/27 03:42:37;;;;;;;0.60;0.40;;;;;;;;;;5071196;28;20440;-71
2023/03/27 03:45:05;;;;;;;1.43;1.33;;;;;;;;;;5071551;28;20456;-72
2023/03/27 03:47:32;;;;;;;0.70;0.57;;;;;;;;;;5070317;28;20556;-71
2023/03/27 03:49:59;;;;;;;0.60;0.40;;;;;;;;;;5071321;28;20449;-71
2023/03/27 03:52:27;;;;;;;0.70;0.50;;;;;;;;;;5071029;28;20453;-71
2023/03/27 03:54:55;;;;;;;0.60;0.40;;;;;;;;;;5071639;28;20933;-71
2023/03/27 03:57:22;;;;;;;0.60;0.40;;;;;;;;;;5070936;28;20463;-71
2023/03/27 03:59:49;;;;;;;0.70;0.60;;;;;;;;;;5070694;28;20445;-71
2023/03/27 04:02:26;;;;;;;0.90;0.90;;;;;;;;;;5070628;28;20447;-71
2023/03/27 04:04:54;;;;;;;0.80;0.60;;;;;;;;;;5071511;28;20486;-71
2023/03/27 04:07:22;;;;;;;1.03;0.83;;;;;;;;;;5070647;28;20502;-71
2023/03/27 04:09:49;;;;;;;0.60;0.40;;;;;;;;;;5069895;28;20485;-71
2023/03/27 04:12:18;;;;;;;1.33;0.70;;;;;;;;;;5070799;28;20451;-71
2023/03/27 04:14:45;;;;;;;0.60;0.40;;;;;;;;;;5071397;28;20450;-72
2023/03/27 04:17:12;;;;;;;0.70;0.50;;;;;;;;;;5071582;28;20468;-71
2023/03/27 04:19:40;;;;;;;0.60;0.40;;;;;;;;;;5070475;28;20454;-72
2023/03/27 04:22:07;;;;;;;0.60;0.40;;;;;;;;;;5071072;28;20463;-72
2023/03/27 04:24:34;;;;;;;0.60;0.40;;;;;;;;;;5070578;28;20567;-72
2023/03/27 04:27:01;;;;;;;0.60;0.50;;;;;;;;;;5070730;28;20845;-72
2023/03/27 04:29:30;;;;;;;0.60;0.40;;;;;;;;;;5070310;28;20451;-72
2023/03/27 04:31:58;;;;;;;1.67;1.57;;;;;;;;;;5070873;28;20940;-72
2023/03/27 04:34:25;;;;;;;0.60;0.40;;;;;;;;;;5070161;28;20456;-72
2023/03/27 04:36:53;;;;;;;0.60;0.40;;;;;;;;;;5071013;28;20480;-72
2023/03/27 04:39:20;;;;;;;0.60;0.40;;;;;;;;;;5069744;28;20445;-72
2023/03/27 04:41:48;;;;;;;2.70;0.70;;;;;;;;;;5070567;28;20455;-72
2023/03/27 04:44:17;;;;;;;0.60;0.40;;;;;;;;;;5070489;28;20451;-73
2023/03/27 04:46:47;;;;;;;0.60;0.40;;;;;;;;;;5069930;28;20500;-72
2023/03/27 04:49:14;;;;;;;0.60;0.40;;;;;;;;;;5070301;28;20453;-72
2023/03/27 04:51:42;;;;;;;0.60;0.40;;;;;;;;;;5069559;28;20457;-73
2023/03/27 04:54:09;;;;;;;0.70;0.50;;;;;;;;;;5070544;28;20464;-72
2023/03/27 04:56:36;;;;;;;0.60;0.50;;;;;;;;;;5069594;28;20460;-72
2023/03/27 04:59:04;;;;;;;0.60;0.40;;;;;;;;;;5069996;28;20445;-72
2023/03/27 05:01:32;;;;;;;0.60;0.40;;;;;;;;;;5069210;28;20450;-72
2023/03/27 05:04:02;;;;;;;0.60;0.40;;;;;;;;;;5070037;28;20971;-72
2023/03/27 05:06:29;;;;;;;0.60;0.40;;;;;;;;;;5069143;28;21062;-72
2023/03/27 05:08:56;;;;;;;0.60;0.40;;;;;;;;;;5070044;28;20477;-72
2023/03/27 05:11:23;;;;;;;0.60;0.50;;;;;;;;;;5069585;28;20461;-72
2023/03/27 05:13:50;;;;;;;0.80;0.70;;;;;;;;;;5070228;28;20445;-72
2023/03/27 05:16:17;;;;;;;0.60;0.40;;;;;;;;;;5069999;28;20464;-72
2023/03/27 05:18:45;;;;;;;0.70;0.50;;;;;;;;;;5070122;28;20452;-72
2023/03/27 05:21:13;;;;;;;0.60;0.40;;;;;;;;;;5070168;28;20477;-72
2023/03/27 05:23:41;;;;;;;0.60;0.40;;;;;;;;;;5070395;28;20446;-72
2023/03/27 05:26:08;;;;;;;0.60;0.50;;;;;;;;;;5070342;28;20456;-72
2023/03/27 05:28:35;;;;;;;0.60;0.50;;;;;;;;;;5069028;28;20840;-72
2023/03/27 05:31:02;;;;;;;0.60;0.40;;;;;;;;;;5070066;28;20451;-72
2023/03/27 05:33:30;;;;;;;0.70;0.60;;;;;;;;;;5069597;28;20516;-72
2023/03/27 05:35:57;;;;;;;0.60;0.40;;;;;;;;;;5070193;28;20467;-72
2023/03/27 05:38:25;;;;;;;0.60;0.40;;;;;;;;;;5069257;28;20455;-72
2023/03/27 05:40:52;;;;;;;1.33;0.83;;;;;;;;;;5069647;28;20445;-72
2023/03/27 05:43:20;;;;;;;0.60;0.40;;;;;;;;;;5069086;28;20776;-73
2023/03/27 05:45:47;;;;;;;0.60;0.40;;;;;;;;;;5069518;28;20478;-73
2023/03/27 05:48:14;;;;;;;0.60;0.40;;;;;;;;;;5069287;28;20902;-72
2023/03/27 05:50:41;;;;;;;0.60;0.40;;;;;;;;;;5069159;28;20544;-72
2023/03/27 05:53:10;;;;;;;0.60;0.40;;;;;;;;;;5069642;28;20449;-72
2023/03/27 05:55:39;;;;;;;0.60;0.40;;;;;;;;;;5068910;28;20450;-72
2023/03/27 05:58:08;;;;;;;0.60;0.40;;;;;;;;;;5069083;28;20457;-72
2023/03/27 06:00:37;;;;;;;0.73;0.73;;;;;;;;;;5068778;28;20449;-73
2023/03/27 06:03:05;;;;;;;0.60;0.40;;;;;;;;;;5069449;28;20534;-72
2023/03/27 06:05:32;;;;;;;0.60;0.40;;;;;;;;;;5069094;28;20457;-73
2023/03/27 06:08:00;;;;;;;0.60;0.40;;;;;;;;;;5068785;28;20488;-73
2023/03/27 06:10:28;;;;;;;0.60;0.40;;;;;;;;;;5068867;28;20952;-72
2023/03/27 06:13:01;;;;;;;0.60;0.40;;;;;;;;;;5069863;28;20532;-72
2023/03/27 06:15:29;;;;;;;0.60;0.40;;;;;;;;;;5069399;28;20490;-73
2023/03/27 06:17:56;;;;;;;0.83;0.80;;;;;;;;;;5069212;28;20487;-72
2023/03/27 06:20:23;;;;;;;0.60;0.40;;;;;;;;;;5069147;28;20449;-73
2023/03/27 06:22:51;;;;;;;0.60;0.40;;;;;;;;;;5069459;28;20441;-73
2023/03/27 06:25:20;;;;;;;0.60;0.40;;;;;;;;;;5069054;28;20450;-73
2023/03/27 06:27:48;;;;;;;0.60;0.40;;;;;;;;;;5069021;28;20547;-73
2023/03/27 06:30:17;;;;;;;0.60;0.40;;;;;;;;;;5069656;28;20453;-73
2023/03/27 06:32:45;;;;;;;0.60;0.40;;;;;;;;;;5070800;28;20449;-73
2023/03/27 06:35:13;;;;;;;0.60;0.40;;;;;;;;;;5073789;28;20816;-72
2023/03/27 06:37:41;;;;;;;0.60;0.40;;;;;;;;;;5073000;28;20449;-72
2023/03/27 06:40:09;;;;;;;0.60;0.40;;;;;;;;;;5073214;28;20481;-72
2023/03/27 06:42:37;;;;;;;0.60;0.40;;;;;;;;;;5072173;28;20684;-73
2023/03/27 06:45:04;;;;;;;0.60;0.40;;;;;;;;;;5072745;28;20468;-73
2023/03/27 06:47:34;;;;;;;1.63;1.53;;;;;;;;;;5072050;28;20489;-73
2023/03/27 06:50:01;;;;;;;0.70;0.60;;;;;;;;;;5073799;28;20944;-72
2023/03/27 06:52:28;;;;;;;0.60;0.40;;;;;;;;;;5073100;28;20453;-73
2023/03/27 06:54:55;;;;;;;0.60;0.40;;;;;;;;;;5074095;28;20455;-72
2023/03/27 06:57:22;;;;;;;0.60;0.40;;;;;;;;;;5073376;28;20445;-72
2023/03/27 06:59:50;;;;;;;0.70;0.60;;;;;;;;;;5073176;28;20448;-72
2023/03/27 07:02:17;;;;;;;1.03;0.60;;;;;;;;;;5059280;28;20472;-73
2023/03/27 07:04:45;;;;;;;0.70;0.60;;;;;;;;;;5073826;28;20932;-72
2023/03/27 07:07:13;;;;;;;0.60;0.40;;;;;;;;;;5060452;28;20481;-72
2023/03/27 07:09:40;;;;;;;0.60;0.40;;;;;;;;;;5072981;28;20454;-72
2023/03/27 07:12:07;;;;;;;0.60;0.40;;;;;;;;;;5073584;28;21037;-72
2023/03/27 07:14:34;;;;;;;0.60;0.40;;;;;;;;;;5073161;28;20886;-72
2023/03/27 07:17:01;;;;;;;0.60;0.40;;;;;;;;;;5073386;28;20469;-72
2023/03/27 07:19:29;;;;;;;0.60;0.40;;;;;;;;;;5072444;28;20441;-72
2023/03/27 07:21:57;;;;;;;0.60;0.40;;;;;;;;;;5073711;28;20445;-72
2023/03/27 07:24:24;;;;;;;0.80;0.60;;;;;;;;;;5072872;28;20541;-71
2023/03/27 07:26:51;;;;;;;0.60;0.40;;;;;;;;;;5073173;28;20438;-72
2023/03/27 07:29:18;;;;;;;0.60;0.60;;;;;;;;;;5072497;28;20466;-72
2023/03/27 07:31:45;;;;;;;0.60;0.40;;;;;;;;;;5073461;28;20453;-72
2023/03/27 07:34:12;;;;;;;0.90;0.70;;;;;;;;;;5073065;28;20896;-72
2023/03/27 07:36:40;;;;;;;0.60;0.40;;;;;;;;;;5073077;28;20456;-72
2023/03/27 07:39:11;;;;;;;0.60;0.40;;;;;;;;;;5072562;28;20901;-73
2023/03/27 07:41:38;;;;;;;0.60;0.40;;;;;;;;;;5072100;28;20444;-72
2023/03/27 07:44:05;;;;;;;0.60;0.40;;;;;;;;;;5072767;28;20453;-72
2023/03/27 07:46:33;;;;;;;0.60;0.40;;;;;;;;;;5071652;28;20482;-72
2023/03/27 07:49:00;;;;;;;0.60;0.40;;;;;;;;;;5072065;28;20500;-72
2023/03/27 07:51:27;;;;;;;0.60;0.40;;;;;;;;;;5072014;28;20446;-72
2023/03/27 07:53:57;;;;;;;0.60;0.40;;;;;;;;;;5072338;28;20451;-72
2023/03/27 07:56:26;;;;;;;0.60;0.40;;;;;;;;;;5072009;28;20454;-72
2023/03/27 07:58:54;;;;;;;0.70;0.60;;;;;;;;;;5072299;28;20803;-73
2023/03/27 08:01:21;;;;;;;0.60;0.40;;;;;;;;;;5071807;28;20499;-73
2023/03/27 08:03:48;;;;;;;0.60;0.40;;;;;;;;;;5072196;28;20499;-73
2023/03/27 08:06:15;;;;;;;0.60;0.50;;;;;;;;;;5072514;28;20459;-73
2023/03/27 08:08:42;;;;;;;0.60;0.40;;;;;;;;;;5071490;28;20915;-72
2023/03/27 08:11:09;;;;;;;0.60;0.40;;;;;;;;;;5072543;28;20458;-72
2023/03/27 08:13:39;;;;;;;0.60;0.40;;;;;;;;;;5071666;28;20918;-73
2023/03/27 08:16:08;;;;;;;0.60;0.40;;;;;;;;;;5072456;28;20454;-73
2023/03/27 08:18:35;;;;;;;1.17;0.60;;;;;;;;;;5071112;28;20945;-72
2023/03/27 08:21:03;;;;;;;0.60;0.40;;;;;;;;;;5072008;28;20443;-72
2023/03/27 08:23:31;;;;;;;0.60;0.40;;;;;;;;;;5071904;28;20449;-73
2023/03/27 08:25:59;;;;;;;0.60;0.40;;;;;;;;;;5072057;28;21010;-72
2023/03/27 08:28:26;;;;;;;0.60;0.40;;;;;;;;;;5071069;28;20478;-72
2023/03/27 08:30:55;;;;;;;0.60;0.40;;;;;;;;;;5071918;28;20477;-72
2023/03/27 08:33:22;;;;;;;0.57;0.40;;;;;;;;;;5071708;28;20447;-72
2023/03/27 08:35:49;;;;;;;0.60;0.40;;;;;;;;;;5072250;28;20456;-72
2023/03/27 08:38:17;;;;;;;0.60;0.40;;;;;;;;;;5071213;28;20541;-72
2023/03/27 08:40:47;;;;;;;0.60;0.40;;;;;;;;;;5072100;28;20442;-72
2023/03/27 08:43:16;;;;;;;0.60;0.40;;;;;;;;;;5071914;28;20457;-72
2023/03/27 08:45:46;;;;;;;0.60;0.40;;;;;;;;;;5071843;28;20538;-72
2023/03/27 08:48:17;;;;;;;0.60;0.40;;;;;;;;;;5071557;28;20476;-72
2023/03/27 08:50:47;;;;;;;0.60;0.40;;;;;;;;;;5071727;28;20506;-72
2023/03/27 08:53:18;;;;;;;0.60;0.40;;;;;;;;;;5071991;28;20446;-72
2023/03/27 08:55:45;;;;;;;0.60;0.40;;;;;;;;;;5071526;28;20811;-72
2023/03/27 08:58:17;;;;;;;0.60;0.40;;;;;;;;;;5071498;28;20449;-72
2023/03/27 09:00:45;;;;;;;0.60;0.40;;;;;;;;;;5071953;28;20817;-72
2023/03/27 09:03:18;;;;;;;0.60;0.50;;;;;;;;;;5070796;28;20472;-71
2023/03/27 09:05:48;;;;;;;0.60;0.40;;;;;;;;;;5071721;28;20558;-73
2023/03/27 09:08:23;;;;;;;0.60;0.40;;;;;;;;;;5070468;28;21012;-70
2023/03/27 09:10:52;;;;;;;0.60;0.40;;;;;;;;;;5067503;28;20454;-69
2023/03/27 09:13:21;;;;;;;0.60;0.40;;;;;;;;;;5071048;28;20446;-71
2023/03/27 09:15:53;;;;;;;1.17;1.07;;;;;;;;;;5071333;28;20461;-71
2023/03/27 09:18:24;;;;;;;0.60;0.40;;;;;;;;;;5070438;28;20446;-69
2023/03/27 09:20:54;;;;;;;0.60;0.40;;;;;;;;;;5071448;28;20505;-70
2023/03/27 09:23:24;;;;;;;0.60;0.40;;;;;;;;;;5070878;28;20479;-68
2023/03/27 09:25:54;;;;;;;1.27;0.67;;;;;;;;;;5071379;28;20448;-71
2023/03/27 09:28:22;;;;;;;0.70;0.60;;;;;;;;;;5070010;28;21016;-69
2023/03/27 09:30:49;;;;;;;0.60;0.40;;;;;;;;;;5071561;28;20452;-69
2023/03/27 09:33:18;;;;;;;0.60;0.40;;;;;;;;;;5070610;28;20506;-70
2023/03/27 09:35:47;;;;;;;0.60;0.40;;;;;;;;;;5071333;28;20786;-73
2023/03/27 09:38:22;;;;;;;0.60;0.40;;;;;;;;;;5071208;28;20442;-68
2023/03/27 09:40:53;;;;;;;0.60;0.40;;;;;;;;;;5071115;28;20445;-70
2023/03/27 09:43:23;;;;;;;0.60;0.40;;;;;;;;;;5070175;28;20449;-69
2023/03/27 09:45:52;;;;;;;1.67;0.70;;;;;;;;;;5069931;28;20480;-70
2023/03/27 09:48:22;;;;;;;0.60;0.40;;;;;;;;;;5069839;28;20492;-75
2023/03/27 09:50:51;;;;;;;0.50;0.40;;;;;;;;;;5070761;28;20445;-70
2023/03/27 09:53:21;;;;;;;0.60;0.40;;;;;;;;;;5070424;28;20449;-77
2023/03/27 09:55:51;;;;;;;1.40;0.60;;;;;;;;;;5070934;28;20789;-72
2023/03/27 09:58:22;;;;;;;0.60;0.40;;;;;;;;;;5069744;28;20455;-77
2023/03/27 10:00:49;;;;;;;0.60;0.40;;;;;;;;;;5070839;28;20449;-70
2023/03/27 10:03:17;;;;;;;0.60;0.40;;;;;;;;;;5069662;28;20441;-70
2023/03/27 10:05:45;;;;;;;0.57;0.40;;;;;;;;;;5070920;28;20469;-69
2023/03/27 10:08:29;;;;;;;0.60;0.40;;;;;;;;;;5074625;28;20472;-69
2023/03/27 10:10:56;;;;;;;0.60;0.40;;;;;;;;;;5075123;28;20452;-69
2023/03/27 10:13:26;;;;;;;0.60;0.40;;;;;;;;;;5074131;28;20440;-69
2023/03/27 10:15:58;;;;;;;0.60;0.40;;;;;;;;;;5073674;28;20859;-68
2023/03/27 10:18:26;;;;;;;0.60;0.40;;;;;;;;;;5072271;28;20445;-69
2023/03/27 10:20:55;;;;;;;0.60;0.40;;;;;;;;;;5073433;28;20491;-70
2023/03/27 10:23:24;;;;;;;0.60;0.40;;;;;;;;;;5073377;28;20453;-69
2023/03/27 10:25:53;;;;;;;15.73;0.80;;;;;;;;;;5073868;28;20480;-69
2023/03/27 10:28:22;;;;;;;0.60;0.40;;;;;;;;;;5072355;28;21035;-69
2023/03/27 10:30:58;;;;;;;0.60;0.40;;;;;;;;;;5073337;28;20472;-72
2023/03/27 10:33:32;;;;;;;0.60;0.40;;;;;;;;;;5072768;28;20949;-70
2023/03/27 10:36:00;;;;;;;0.60;0.40;;;;;;;;;;5073454;28;20802;-70
2023/03/27 10:38:28;;;;;;;0.70;0.50;;;;;;;;;;5072328;28;20453;-69
2023/03/27 10:40:56;;;;;;;0.60;0.40;;;;;;;;;;5072456;28;20564;-78
2023/03/27 10:43:28;;;;;;;2.70;0.80;;;;;;;;;;5071921;28;20784;-69
2023/03/27 10:45:56;;;;;;;0.60;0.47;;;;;;;;;;5072645;28;20488;-69
2023/03/27 10:48:31;;;;;;;0.63;0.60;;;;;;;;;;5071547;28;20484;-69
2023/03/27 10:51:02;;;;;;;0.60;0.40;;;;;;;;;;5072464;28;20444;-68
2023/03/27 10:53:36;;;;;;;0.60;0.40;;;;;;;;;;5072251;28;20468;-68
2023/03/27 10:56:07;;;;;;;0.60;0.40;;;;;;;;;;5072940;28;20473;-68
2023/03/27 10:58:37;;;;;;;0.60;0.40;;;;;;;;;;5071817;28;20528;-70
2023/03/27 11:01:06;;;;;;;0.80;0.80;;;;;;;;;;5072640;28;20437;-71
2023/03/27 11:03:37;;;;;;;0.57;0.40;;;;;;;;;;5071707;28;20942;-70
2023/03/27 11:06:07;;;;;;;0.60;0.40;;;;;;;;;;5072877;28;20446;-71
2023/03/27 11:08:40;;;;;;;0.60;0.40;;;;;;;;;;5071786;28;20489;-71
2023/03/27 11:11:09;;;;;;;0.50;0.40;;;;;;;;;;5073017;28;20798;-70
2023/03/27 11:13:38;;;;;;;0.60;0.40;;;;;;;;;;5069231;28;20459;-77
2023/03/27 11:16:13;;;;;;;0.50;0.40;;;;;;;;;;5067056;28;20450;-71
2023/03/27 11:18:43;;;;;;;0.60;0.40;;;;;;;;;;5065304;28;20967;-72
2023/03/27 11:21:12;;;;;;;0.60;0.50;;;;;;;;;;5066923;28;20548;-71
2023/03/27 11:23:44;;;;;;;0.60;0.40;;;;;;;;;;5063451;28;20535;-71
2023/03/27 11:26:14;;;;;;;0.60;0.40;;;;;;;;;;5062398;28;20532;-70
2023/03/27 11:28:43;;;;;;;0.60;0.40;;;;;;;;;;5072307;28;20823;-71
2023/03/27 11:31:15;;;;;;;0.53;0.40;;;;;;;;;;5072764;28;20441;-71
2023/03/27 11:33:45;;;;;;;0.60;0.60;;;;;;;;;;5072338;28;20440;-71
2023/03/27 11:36:16;;;;;;;0.60;0.40;;;;;;;;;;5067770;28;20445;-70
2023/03/27 11:38:47;;;;;;;0.73;0.60;;;;;;;;;;5064270;28;20449;-70
2023/03/27 11:41:14;;;;;;;0.70;0.60;;;;;;;;;;5073333;28;20442;-70
2023/03/27 11:43:42;;;;;;;0.50;0.40;;;;;;;;;;5070698;28;20469;-72
2023/03/27 11:46:13;;;;;;;0.60;0.47;;;;;;;;;;5071762;28;20481;-70
2023/03/27 11:48:49;;;;;;;0.60;0.40;;;;;;;;;;5070676;28;20512;-70
2023/03/27 11:51:20;;;;;;;0.60;0.50;;;;;;;;;;5069389;28;20533;-77
2023/03/27 11:53:57;;;;;;;0.50;0.40;;;;;;;;;;5071156;28;20449;-72
2023/03/27 11:56:31;;;;;;;0.60;0.40;;;;;;;;;;5071067;28;20429;-71
2023/03/27 11:59:05;;;;;;;0.50;0.40;;;;;;;;;;5069673;28;20924;-71
2023/03/27 12:01:35;;;;;;;0.50;0.40;;;;;;;;;;5069323;28;20465;-71
2023/03/27 12:04:07;;;;;;;0.60;0.50;;;;;;;;;;5071611;28;20871;-70
2023/03/27 12:06:37;;;;;;;0.60;0.40;;;;;;;;;;5069270;28;20477;-72
2023/03/27 12:09:18;;;;;;;0.60;0.40;;;;;;;;;;5065585;28;20992;-70
2023/03/27 12:11:46;;;;;;;0.53;0.40;;;;;;;;;;5068830;28;20826;-74
2023/03/27 12:14:35;;;;;;;0.50;0.40;;;;;;;;;;5071583;28;20970;-70
2023/03/27 12:17:09;;;;;;;0.57;0.40;;;;;;;;;;5072031;28;20457;-72
2023/03/27 12:19:44;;;;;;;0.50;0.40;;;;;;;;;;5070964;28;20440;-71
2023/03/27 12:22:18;;;;;;;0.60;0.40;;;;;;;;;;5072002;28;20445;-70
2023/03/27 12:24:52;;;;;;;0.50;0.40;;;;;;;;;;5070643;28;20437;-72
2023/03/27 12:27:37;;;;;;;0.50;0.40;;;;;;;;;;5068720;28;20461;-70
2023/03/27 12:30:15;;;;;;;0.50;0.40;;;;;;;;;;5069379;28;20540;-70
2023/03/27 12:32:49;;;;;;;0.60;0.40;;;;;;;;;;5071164;28;20456;-70
2023/03/27 12:35:17;;;;;;;0.50;0.40;;;;;;;;;;5070411;28;20810;-71
2023/03/27 12:37:47;;;;;;;0.50;0.40;;;;;;;;;;5068221;28;20464;-70
2023/03/27 12:40:26;;;;;;;0.50;0.40;;;;;;;;;;5071654;28;20467;-70
2023/03/27 12:42:53;;;;;;;0.60;0.50;;;;;;;;;;5071063;28;20437;-70
2023/03/27 12:45:22;;;;;;;0.50;0.40;;;;;;;;;;5069991;28;20796;-70
2023/03/27 12:48:08;;;;;;;0.60;0.40;;;;;;;;;;5070167;28;20498;-71
2023/03/27 12:50:36;;;;;;;0.50;0.40;;;;;;;;;;5069673;28;20584;-70
2023/03/27 12:53:04;;;;;;;0.50;0.40;;;;;;;;;;5070408;28;21009;-70
2023/03/27 12:55:34;;;;;;;0.50;0.40;;;;;;;;;;5060361;28;20472;-69
2023/03/27 12:58:02;;;;;;;0.50;0.40;;;;;;;;;;5069667;28;20747;-70
2023/03/27 13:00:29;;;;;;;0.50;0.40;;;;;;;;;;5069568;28;20566;-70
2023/03/27 13:03:14;;;;;;;0.50;0.40;;;;;;;;;;5069824;28;20452;-70
2023/03/27 13:06:02;;;;;;;0.50;0.40;;;;;;;;;;5069329;28;20820;-70
2023/03/27 13:08:50;;;;;;;0.50;0.40;;;;;;;;;;5069262;28;20438;-70
2023/03/27 13:11:25;;;;;;;0.50;0.40;;;;;;;;;;5068291;28;20441;-75
2023/03/27 13:14:07;;;;;;;0.50;0.40;;;;;;;;;;5069834;28;20498;-70
2023/03/27 13:16:40;;;;;;;0.70;0.60;;;;;;;;;;5069288;28;20454;-70
2023/03/27 13:19:13;;;;;;;0.50;0.40;;;;;;;;;;5069559;28;20937;-70
2023/03/27 13:21:48;;;;;;;0.80;0.50;;;;;;;;;;5069179;28;20445;-70
2023/03/27 13:24:21;;;;;;;0.50;0.40;;;;;;;;;;5070465;28;20447;-70
2023/03/27 13:26:55;;;;;;;0.60;0.40;;;;;;;;;;5070231;28;20486;-71
2023/03/27 13:29:23;;;;;;;0.50;0.40;;;;;;;;;;5068139;28;20491;-70
2023/03/27 13:31:58;;;;;;;0.60;0.40;;;;;;;;;;5070079;28;20449;-67
2023/03/27 13:34:32;;;;;;;0.50;0.40;;;;;;;;;;5069077;28;20524;-70
2023/03/27 13:37:06;;;;;;;0.50;0.40;;;;;;;;;;5067344;28;20523;-70
2023/03/27 13:39:39;;;;;;;0.50;0.40;;;;;;;;;;5056855;28;20437;-69
2023/03/27 13:42:09;;;;;;;0.60;0.40;;;;;;;;;;5069692;28;20873;-71
2023/03/27 13:44:46;;;;;;;0.50;0.40;;;;;;;;;;5068657;28;20920;-69
2023/03/27 13:47:31;;;;;;;0.60;0.40;;;;;;;;;;5069515;28;20480;-70
2023/03/27 13:50:16;;;;;;;0.60;0.40;;;;;;;;;;5069325;28;20477;-69
2023/03/27 13:53:04;;;;;;;0.60;0.40;;;;;;;;;;5069379;28;20449;-69
2023/03/27 13:55:38;;;;;;;0.60;0.40;;;;;;;;;;5059129;28;20471;-69
2023/03/27 13:58:19;;;;;;;0.60;0.40;;;;;;;;;;5069375;28;20480;-69
2023/03/27 14:01:00;;;;;;;0.70;0.60;;;;;;;;;;5069514;28;20453;-72
2023/03/27 14:03:55;;;;;;;0.60;0.40;;;;;;;;;;5069136;28;20450;-72
2023/03/27 14:06:38;;;;;;;0.60;0.40;;;;;;;;;;5069505;28;20451;-69
2023/03/27 14:09:14;;;;;;;1.43;1.03;;;;;;;;;;5069848;28;20522;-69
2023/03/27 14:11:52;;;;;;;0.73;0.60;;;;;;;;;;5067880;28;20462;-70
2023/03/27 14:14:35;;;;;;;0.60;0.40;;;;;;;;;;5069162;28;20452;-70
2023/03/27 14:17:23;;;;;;;0.60;0.40;;;;;;;;;;5067619;28;20813;-70
2023/03/27 14:20:05;;;;;;;0.60;0.40;;;;;;;;;;5058991;28;20461;-73
2023/03/27 14:22:36;;;;;;;1.10;1.00;;;;;;;;;;5063017;28;20445;-70
2023/03/27 14:25:06;;;;;;;0.60;0.40;;;;;;;;;;5069753;28;20491;-69
2023/03/27 14:27:34;;;;;;;0.60;0.47;;;;;;;;;;5068783;28;20442;-70
2023/03/27 14:30:07;;;;;;;0.57;0.40;;;;;;;;;;5064676;28;20485;-69
2023/03/27 14:32:34;;;;;;;0.70;0.70;;;;;;;;;;5058022;28;20488;-69
2023/03/27 14:35:04;;;;;;;0.90;0.60;;;;;;;;;;5060693;28;20446;-70
2023/03/27 14:37:34;;;;;;;0.60;0.40;;;;;;;;;;5068608;28;20442;-69
2023/03/27 14:40:06;;;;;;;0.80;0.67;;;;;;;;;;5066910;28;20550;-69
2023/03/27 14:42:33;;;;;;;0.60;0.40;;;;;;;;;;5067075;28;20503;-70
2023/03/27 14:45:08;;;;;;;0.60;0.40;;;;;;;;;;5068274;28;20433;-71
2023/03/27 14:47:36;;;;;;;0.70;0.50;;;;;;;;;;5067786;28;20917;-76
2023/03/27 14:50:05;;;;;;;0.60;0.40;;;;;;;;;;5069109;28;20510;-71
2023/03/27 14:52:34;;;;;;;0.60;0.40;;;;;;;;;;5068606;28;20925;-70
2023/03/27 14:55:02;;;;;;;0.60;0.50;;;;;;;;;;5072871;28;20449;-70
2023/03/27 14:57:30;;;;;;;0.60;0.40;;;;;;;;;;5058797;28;20442;-71
2023/03/27 14:59:57;;;;;;;0.60;0.40;;;;;;;;;;5072548;28;20857;-69
2023/03/27 15:02:27;;;;;;;0.60;0.40;;;;;;;;;;5070397;28;20461;-69